Time;durP1;ratioP1;P1;durP2;ratioP2;P2;SDS_P1;SDS_P2;PMS_P1;PMS_P2;Temp;Humidity;BMP_temperature;BMP_pressure;BME280_temperature;BME280_humidity;BME280_pressure;Samples;Min_cycle;Max_cycle;Signal;HPM_P1;HPM_P2
2021/06/01 00:00:13;;;;;;;1.42;0.70;;;;;;;10.92;84.49;97560.67;1657825;84;21154;-68
2021/06/01 00:02:42;;;;;;;2.12;0.72;;;;;;;10.90;84.20;97560.47;1657718;84;21554;-71
2021/06/01 00:05:09;;;;;;;0.88;0.62;;;;;;;10.85;84.33;97562.26;1657871;84;21138;-70
2021/06/01 00:07:37;;;;;;;0.80;0.70;;;;;;;10.83;84.47;97552.49;1657975;84;21083;-72
2021/06/01 00:10:07;;;;;;;1.70;0.80;;;;;;;10.88;84.21;97554.63;1658071;84;21082;-68
2021/06/01 00:12:35;;;;;;;0.90;0.62;;;;;;;10.86;84.14;97550.06;1657897;84;21039;-69
2021/06/01 00:15:04;;;;;;;0.68;0.50;;;;;;;10.85;84.04;97557.55;1657841;84;21602;-68
2021/06/01 00:17:31;;;;;;;1.15;0.75;;;;;;;10.87;83.68;97555.11;1658217;84;21098;-68
2021/06/01 00:19:58;;;;;;;1.17;0.70;;;;;;;10.82;84.14;97549.55;1658087;84;21507;-67
2021/06/01 00:22:25;;;;;;;1.20;0.70;;;;;;;10.79;84.25;97550.34;1657808;84;21547;-69
2021/06/01 00:24:52;;;;;;;0.55;0.45;;;;;;;10.79;84.46;97553.77;1657904;84;21067;-68
2021/06/01 00:27:19;;;;;;;0.68;0.60;;;;;;;10.79;84.31;97544.67;1657783;84;21507;-69
2021/06/01 00:29:45;;;;;;;2.20;0.82;;;;;;;10.80;84.28;97548.91;1657766;84;21621;-70
2021/06/01 00:32:12;;;;;;;1.27;0.88;;;;;;;10.80;84.27;97550.69;1657691;84;21087;-69
2021/06/01 00:34:40;;;;;;;0.88;0.50;;;;;;;10.77;84.54;97549.22;1657915;84;21575;-67
2021/06/01 00:37:07;;;;;;;0.82;0.68;;;;;;;10.80;84.24;97548.09;1657890;84;21563;-71
2021/06/01 00:39:33;;;;;;;1.00;0.85;;;;;;;10.79;84.54;97551.65;1657997;85;21067;-68
2021/06/01 00:42:00;;;;;;;1.05;0.57;;;;;;;10.80;84.54;97551.50;1657979;84;21074;-68
2021/06/01 00:44:27;;;;;;;1.12;0.60;;;;;;;10.77;84.80;97556.20;1658019;85;21050;-71
2021/06/01 00:46:54;;;;;;;0.98;0.45;;;;;;;10.77;84.80;97551.82;1658083;84;21050;-71
2021/06/01 00:49:21;;;;;;;1.62;0.75;;;;;;;10.83;84.47;97556.87;1658144;84;21079;-69
2021/06/01 00:51:48;;;;;;;2.08;0.82;;;;;;;10.84;84.26;97557.20;1658077;84;21543;-70
2021/06/01 00:54:15;;;;;;;0.93;0.55;;;;;;;10.87;84.22;97555.59;1658041;84;21574;-67
2021/06/01 00:56:42;;;;;;;0.72;0.60;;;;;;;10.86;84.17;97550.06;1658365;84;21098;-71
2021/06/01 00:59:09;;;;;;;0.93;0.80;;;;;;;10.85;84.11;97549.75;1658592;85;21514;-67
2021/06/01 01:01:37;;;;;;;0.57;0.42;;;;;;;10.85;84.28;97549.75;1658248;84;21082;-68
2021/06/01 01:04:04;;;;;;;1.42;0.80;;;;;;;10.80;84.52;97546.31;1658008;84;21051;-67
2021/06/01 01:06:59;;;;;;;1.10;0.60;;;;;;;10.78;84.75;97542.22;1658071;84;21051;-68
2021/06/01 01:09:30;;;;;;;1.32;0.90;;;;;;;10.75;85.07;97549.02;1657955;84;21062;-69
2021/06/01 01:12:09;;;;;;;1.00;0.80;;;;;;;10.68;85.76;97547.54;1657944;84;21522;-69
2021/06/01 01:14:50;;;;;;;6.05;0.70;;;;;;;10.63;86.04;97540.68;1657947;84;21609;-69
2021/06/01 01:17:21;;;;;;;0.70;0.50;;;;;;;10.63;85.97;97545.88;1657988;84;21072;-69
2021/06/01 01:20:23;;;;;;;0.57;0.50;;;;;;;10.67;85.65;97535.99;1657947;84;21111;-67
2021/06/01 01:22:54;;;;;;;1.52;0.90;;;;;;;10.65;85.66;97540.54;1658377;84;21601;-69
2021/06/01 01:25:37;;;;;;;1.42;0.78;;;;;;;10.66;85.58;97537.77;1658183;84;21070;-67
2021/06/01 01:28:25;;;;;;;0.80;0.50;;;;;;;10.68;85.54;97533.73;1657805;84;21626;-69
2021/06/01 01:31:00;;;;;;;1.92;0.95;;;;;;;10.73;85.17;97541.89;1656582;84;21068;-69
2021/06/01 01:33:37;;;;;;;1.37;0.90;;;;;;;10.77;85.42;97540.13;1658108;84;21031;-68
2021/06/01 01:36:09;;;;;;;0.78;0.70;;;;;;;10.79;85.35;97539.96;1657761;84;21059;-69
2021/06/01 01:38:40;;;;;;;0.95;0.75;;;;;;;10.82;85.18;97542.24;1658038;84;21598;-69
2021/06/01 01:41:14;;;;;;;0.80;0.60;;;;;;;10.87;84.90;97541.30;1658223;84;21149;-69
2021/06/01 01:43:43;;;;;;;0.93;0.53;;;;;;;10.83;84.93;97531.71;1658686;84;21050;-70
2021/06/01 01:46:27;;;;;;;0.78;0.57;;;;;;;10.87;84.95;97533.03;1658016;85;21572;-70
2021/06/01 01:49:01;;;;;;;4.30;1.05;;;;;;;10.90;84.84;97536.61;1632205;84;21136;-69
2021/06/01 01:51:46;;;;;;;4.75;1.00;;;;;;;10.85;85.00;97538.88;1644057;85;21136;-69
2021/06/01 01:54:26;;;;;;;1.77;0.78;;;;;;;10.85;84.82;97537.58;1658012;84;21054;-70
2021/06/01 01:57:08;;;;;;;5.47;0.80;;;;;;;10.80;85.00;97539.81;1638212;85;21073;-67
2021/06/01 01:59:30;;;;;;;1.12;0.88;;;;;;;10.72;85.29;97544.15;1657156;84;21071;-69
2021/06/01 02:01:59;;;;;;;1.20;0.72;;;;;;;10.66;85.76;97540.88;1638937;85;21097;-67
2021/06/01 02:04:31;;;;;;;1.07;0.72;;;;;;;10.68;85.58;97539.75;1658157;84;21439;-70
2021/06/01 02:07:00;;;;;;;0.70;0.57;;;;;;;10.67;85.37;97539.41;1639168;85;21171;-67
2021/06/01 02:09:28;;;;;;;1.05;0.55;;;;;;;10.68;85.28;97535.84;1658035;84;21586;-69
2021/06/01 02:11:54;;;;;;;0.70;0.50;;;;;;;10.67;85.42;97532.91;1638778;85;21540;-69
2021/06/01 02:14:23;;;;;;;1.32;0.72;;;;;;;10.73;85.13;97531.50;1658006;84;21065;-69
2021/06/01 02:16:53;;;;;;;2.20;0.80;;;;;;;10.72;85.29;97538.47;1638954;85;21648;-69
2021/06/01 02:19:22;;;;;;;1.20;0.93;;;;;;;10.73;85.06;97534.91;1657983;85;21066;-67
2021/06/01 02:25:05;;;;;;;2.70;1.00;;;;;;;10.79;84.76;97526.49;1657801;84;21079;-70
2021/06/01 02:27:52;;;;;;;1.52;0.90;;;;;;;10.76;85.05;97520.31;1657192;84;21553;-69
2021/06/01 02:30:23;;;;;;;2.00;1.10;;;;;;;10.72;85.30;97518.99;1657306;84;21042;-69
2021/06/01 02:32:54;;;;;;;0.85;0.55;;;;;;;10.67;85.58;97516.03;1658022;84;21506;-67
2021/06/01 02:35:29;;;;;;;0.55;0.55;;;;;;;10.66;85.50;97517.50;1657965;84;21098;-70
2021/06/01 02:38:00;;;;;;;0.75;0.70;;;;;;;10.69;85.22;97515.89;1657273;84;21120;-70
2021/06/01 02:40:29;;;;;;;0.90;0.57;;;;;;;10.74;84.97;97517.05;1657343;84;21059;-67
2021/06/01 02:43:02;;;;;;;0.80;0.72;;;;;;;10.78;84.62;97522.73;1657170;84;21047;-70
2021/06/01 02:45:29;;;;;;;0.93;0.65;;;;;;;10.79;84.78;97519.19;1657415;84;21032;-69
2021/06/01 02:47:56;;;;;;;1.22;0.75;;;;;;;10.79;84.59;97521.30;1657503;84;21108;-67
2021/06/01 02:50:25;;;;;;;1.35;0.88;;;;;;;10.83;84.55;97514.83;1657222;84;21658;-70
2021/06/01 02:52:52;;;;;;;1.12;0.78;;;;;;;10.86;84.21;97521.00;1657214;84;21071;-69
2021/06/01 02:55:20;;;;;;;0.90;0.70;;;;;;;10.90;83.71;97517.13;1657187;84;21186;-67
2021/06/01 02:57:48;;;;;;;1.30;0.95;;;;;;;10.93;83.76;97523.30;1657154;84;21556;-67
2021/06/01 03:00:22;;;;;;;6.12;0.65;;;;;;;10.88;84.30;97526.88;1657216;84;21508;-67
2021/06/01 03:02:49;;;;;;;2.35;1.50;;;;;;;10.85;84.07;97521.18;1657230;84;21540;-67
2021/06/01 03:05:18;;;;;;;0.82;0.72;;;;;;;10.80;84.66;97522.94;1657486;84;21108;-70
2021/06/01 03:07:54;;;;;;;1.85;0.95;;;;;;;10.78;84.70;97520.14;1657114;84;21043;-70
2021/06/01 03:10:23;;;;;;;;;;;;;;;10.70;84.87;97522.22;1659547;84;21147;-67
2021/06/01 03:13:00;;;;;;;1.07;0.82;;;;;;;10.69;85.32;97524.50;1657102;84;20485;-70
2021/06/01 03:15:27;;;;;;;1.42;1.02;;;;;;;10.72;84.98;97522.89;1657280;84;21068;-70
2021/06/01 03:17:54;;;;;;;1.90;1.27;;;;;;;10.73;84.76;97528.91;1657465;85;21044;-70
2021/06/01 03:20:21;;;;;;;0.95;0.60;;;;;;;10.75;85.01;97528.25;1657502;84;21072;-68
2021/06/01 03:22:48;;;;;;;1.50;1.02;;;;;;;10.81;84.53;97534.96;1657310;84;21064;-70
2021/06/01 03:25:16;;;;;;;1.67;1.07;;;;;;;10.86;84.47;97531.87;1657284;84;21248;-67
2021/06/01 03:27:42;;;;;;;1.32;1.00;;;;;;;10.85;84.44;97537.58;1657161;84;21095;-67
2021/06/01 03:30:12;;;;;;;1.80;1.07;;;;;;;10.88;84.30;97533.85;1657287;84;21147;-69
2021/06/01 03:32:40;;;;;;;1.47;1.12;;;;;;;10.84;84.27;97537.25;1657019;84;21048;-67
2021/06/01 03:35:13;;;;;;;1.80;1.10;;;;;;;10.82;84.35;97541.77;1657177;84;21063;-67
2021/06/01 03:37:39;;;;;;;1.50;1.05;;;;;;;10.83;84.54;97543.40;1651917;85;21035;-67
2021/06/01 03:40:08;;;;;;;1.75;1.00;;;;;;;10.86;84.50;97537.07;1648840;85;21597;-68
2021/06/01 03:42:35;;;;;;;1.35;0.95;;;;;;;10.95;84.17;97537.45;1648881;85;21566;-69
2021/06/01 03:45:03;;;;;;;1.25;0.80;;;;;;;11.03;83.62;97540.09;1629845;85;21580;-67
2021/06/01 03:47:30;;;;;;;1.00;0.85;;;;;;;11.13;83.36;97541.25;1648857;85;21055;-69
2021/06/01 03:49:57;;;;;;;1.87;1.10;;;;;;;11.14;82.92;97537.69;1648783;85;21054;-70
2021/06/01 03:52:25;;;;;;;1.98;1.00;;;;;;;11.14;82.95;97532.02;1629938;85;21199;-68
2021/06/01 03:55:01;;;;;;;1.22;0.98;;;;;;;11.17;82.87;97527.80;1648929;85;21583;-70
2021/06/01 03:57:28;;;;;;;1.52;0.80;;;;;;;11.23;81.97;97527.19;1648725;85;21131;-69
2021/06/01 03:59:55;;;;;;;1.47;1.05;;;;;;;11.27;82.24;97522.00;1629844;85;21105;-67
2021/06/01 04:02:23;;;;;;;2.30;1.45;;;;;;;11.27;82.47;97527.20;1648869;85;21157;-69
2021/06/01 04:04:51;;;;;;;1.87;0.98;;;;;;;11.26;82.44;97532.06;1649045;85;21047;-67
2021/06/01 04:07:18;;;;;;;2.15;1.22;;;;;;;11.28;82.18;97528.80;1630144;85;21161;-70
2021/06/01 04:09:45;;;;;;;1.20;0.82;;;;;;;11.29;82.24;97534.82;1648948;85;21103;-67
2021/06/01 04:12:14;;;;;;;1.20;0.90;;;;;;;11.32;82.23;97530.63;1648838;85;21207;-70
2021/06/01 04:14:41;;;;;;;1.90;1.12;;;;;;;11.33;82.52;97523.95;1629959;85;21101;-68
2021/06/01 04:17:08;;;;;;;1.45;0.90;;;;;;;11.34;82.67;97528.19;1648736;85;21099;-67
2021/06/01 04:19:35;;;;;;;2.02;1.42;;;;;;;11.32;82.93;97532.72;1648859;85;21139;-69
2021/06/01 04:22:03;;;;;;;1.32;1.12;;;;;;;11.40;82.29;97532.75;1630055;85;21084;-71
2021/06/01 04:24:30;;;;;;;1.47;0.98;;;;;;;11.46;82.16;97526.11;1649028;85;21644;-69
2021/06/01 04:27:00;;;;;;;2.25;1.22;;;;;;;11.57;81.95;97527.59;1648819;85;21106;-69
2021/06/01 04:29:28;;;;;;;2.80;1.67;;;;;;;11.64;81.51;97529.88;1629956;86;21160;-69
2021/06/01 04:31:56;;;;;;;4.40;1.10;;;;;;;11.72;81.16;97530.75;1648941;85;21186;-67
2021/06/01 04:34:23;;;;;;;2.47;1.30;;;;;;;11.77;81.08;97536.77;1648821;85;21055;-69
2021/06/01 04:36:50;;;;;;;2.22;1.35;;;;;;;11.93;80.81;97538.58;1650239;85;21722;-70
2021/06/01 04:39:17;;;;;;;1.80;1.17;;;;;;;11.85;80.42;97544.59;1629758;86;21101;-67
2021/06/01 04:41:44;;;;;;;0.98;0.88;;;;;;;11.96;80.10;97531.27;1645487;85;21211;-68
2021/06/01 04:44:11;;;;;;;1.87;1.30;;;;;;;11.99;80.55;97532.23;1657891;84;21099;-69
2021/06/01 04:46:38;;;;;;;2.12;1.12;;;;;;;12.02;80.18;97531.12;1657967;84;21163;-70
2021/06/01 04:49:05;;;;;;;4.72;1.02;;;;;;;12.05;80.30;97528.19;1657999;84;21064;-68
2021/06/01 04:51:32;;;;;;;3.08;1.45;;;;;;;12.07;80.42;97531.42;1658091;85;21207;-69
2021/06/01 04:54:00;;;;;;;3.80;1.07;;;;;;;12.03;80.69;97534.84;1657769;85;21083;-71
2021/06/01 04:56:28;;;;;;;1.42;1.15;;;;;;;12.09;80.61;97534.20;1657836;84;21563;-70
2021/06/01 04:58:56;;;;;;;1.70;1.27;;;;;;;12.10;80.52;97537.63;1657721;84;21047;-71
2021/06/01 05:01:25;;;;;;;1.65;1.30;;;;;;;12.15;80.48;97530.94;1657772;84;21615;-70
2021/06/01 05:03:53;;;;;;;2.92;1.77;;;;;;;12.22;80.64;97536.30;1657658;85;21087;-69
2021/06/01 05:06:21;;;;;;;1.82;1.05;;;;;;;12.26;80.60;97537.60;1657815;84;21095;-69
2021/06/01 05:08:48;;;;;;;2.15;1.15;;;;;;;12.35;80.01;97545.75;1657864;84;21080;-68
2021/06/01 05:11:15;;;;;;;1.95;1.32;;;;;;;12.43;80.01;97543.14;1657762;84;21539;-68
2021/06/01 05:13:42;;;;;;;1.80;1.32;;;;;;;12.54;79.64;97542.80;1657884;84;21056;-69
2021/06/01 05:16:09;;;;;;;2.33;1.12;;;;;;;12.58;79.15;97544.58;1657854;84;21044;-71
2021/06/01 05:18:36;;;;;;;2.33;1.85;;;;;;;12.73;78.83;97542.92;1657995;85;21163;-71
2021/06/01 05:21:04;;;;;;;1.22;0.93;;;;;;;12.81;77.79;97545.03;1657931;84;21044;-68
2021/06/01 05:23:32;;;;;;;1.75;1.00;;;;;;;12.94;77.67;97545.00;1657889;84;21012;-71
2021/06/01 05:25:58;;;;;;;1.32;0.82;;;;;;;13.03;77.66;97546.13;1657963;85;21586;-71
2021/06/01 05:28:25;;;;;;;3.37;1.60;;;;;;;13.15;77.08;97550.52;1657939;85;21552;-68
2021/06/01 05:31:09;;;;;;;1.55;1.12;;;;;;;13.17;76.35;97549.84;1658031;84;21092;-71
2021/06/01 05:33:35;;;;;;;1.42;1.12;;;;;;;13.18;76.29;97547.56;1658072;84;21583;-66
2021/06/01 05:36:02;;;;;;;1.67;1.20;;;;;;;13.22;76.37;97549.66;1658022;84;21512;-70
2021/06/01 05:38:30;;;;;;;1.85;1.30;;;;;;;13.17;76.33;97545.93;1651635;85;21047;-67
2021/06/01 05:41:00;;;;;;;1.42;1.12;;;;;;;13.14;76.13;97551.00;1639134;85;21057;-69
2021/06/01 05:43:29;;;;;;;1.17;0.75;;;;;;;13.34;76.10;97554.02;1649042;85;21031;-67
2021/06/01 05:45:56;;;;;;;1.42;0.80;;;;;;;13.55;76.20;97552.92;1630090;85;22556;-69
2021/06/01 05:48:23;;;;;;;1.32;0.78;;;;;;;13.79;75.56;97550.19;1649048;85;21056;-68
2021/06/01 05:50:51;;;;;;;1.05;0.70;;;;;;;13.89;73.01;97554.37;1649024;85;21150;-67
2021/06/01 05:53:20;;;;;;;5.58;1.15;;;;;;;14.10;72.32;97548.83;1630101;85;21084;-71
2021/06/01 05:55:47;;;;;;;2.52;1.20;;;;;;;14.13;71.70;97557.61;1648931;85;21095;-70
2021/06/01 05:58:14;;;;;;;1.75;1.20;;;;;;;14.40;71.40;97551.55;1648883;85;21111;-70
2021/06/01 06:00:41;;;;;;;1.90;1.05;;;;;;;14.59;70.37;97545.85;1629980;85;21115;-67
2021/06/01 06:03:08;;;;;;;4.40;1.37;;;;;;;14.71;70.63;97554.36;1648846;85;21043;-68
2021/06/01 06:05:35;;;;;;;4.30;1.27;;;;;;;14.88;70.56;97550.28;1649057;85;21043;-67
2021/06/01 06:08:14;;;;;;;2.52;1.40;;;;;;;14.93;69.04;97548.77;1630084;85;21121;-73
2021/06/01 06:10:43;;;;;;;1.82;1.35;;;;;;;15.14;68.91;97548.02;1648892;85;21071;-70
2021/06/01 06:13:12;;;;;;;1.90;1.35;;;;;;;15.16;67.64;97551.28;1648836;85;21075;-68
2021/06/01 06:15:40;;;;;;;1.95;1.40;;;;;;;15.33;67.66;97553.22;1629897;85;21101;-70
2021/06/01 06:18:40;;;;;;;1.30;1.20;;;;;;;15.44;67.13;97547.52;1649010;85;21043;-72
2021/06/01 06:21:07;;;;;;;2.00;1.37;;;;;;;15.49;66.24;97542.06;1648872;85;21071;-67
2021/06/01 06:23:40;;;;;;;1.17;0.82;;;;;;;15.77;66.17;97546.11;1648896;85;21507;-69
2021/06/01 06:26:05;;;;;;;1.05;0.60;;;;;;;15.99;67.34;97545.11;1648614;85;21062;-68
2021/06/01 06:28:31;;;;;;;0.88;0.75;;;;;;;16.17;63.82;97542.08;1630170;85;21117;-70
2021/06/01 06:30:59;;;;;;;2.80;0.85;;;;;;;16.13;54.02;97538.21;1648913;85;21182;-69
2021/06/01 06:33:26;;;;;;;1.87;0.82;;;;;;;16.26;58.31;97545.38;1648928;85;21576;-71
2021/06/01 06:35:54;;;;;;;3.15;0.80;;;;;;;16.30;54.72;97547.41;1648834;85;21626;-69
2021/06/01 06:38:21;;;;;;;0.85;0.70;;;;;;;16.34;51.09;97540.02;1652693;85;21155;-72
2021/06/01 06:43:26;;;;;;;3.33;0.62;;;;;;;16.17;50.63;97543.88;1647820;85;21016;-68
2021/06/01 06:45:53;;;;;;;0.90;0.55;;;;;;;16.65;54.80;97544.42;1658169;85;21082;-66
2021/06/01 06:48:20;;;;;;;2.70;0.93;;;;;;;16.65;51.78;97538.38;1658183;85;21064;-66
2021/06/01 06:50:47;;;;;;;0.70;0.60;;;;;;;16.98;54.66;97545.94;1658137;85;21582;-66
2021/06/01 06:53:14;;;;;;;1.35;0.72;;;;;;;17.24;51.21;97544.76;1658149;85;21574;-64
2021/06/01 06:55:41;;;;;;;0.82;0.68;;;;;;;17.05;49.51;97551.53;1658103;85;21111;-64
2021/06/01 06:58:07;;;;;;;1.62;0.60;;;;;;;17.23;50.69;97544.97;1658196;85;21075;-64
2021/06/01 07:00:35;;;;;;;1.42;0.70;;;;;;;17.24;50.09;97551.82;1672054;85;21091;-66
2021/06/01 07:03:02;;;;;;;1.47;0.80;;;;;;;17.18;47.37;97544.73;1657943;85;21850;-64
2021/06/01 07:05:30;;;;;;;1.90;1.00;;;;;;;16.97;47.64;97549.55;1672113;85;21135;-63
2021/06/01 07:07:57;;;;;;;1.30;0.82;;;;;;;16.92;47.92;97545.41;1667855;85;21523;-66
2021/06/01 07:10:24;;;;;;;0.93;0.60;;;;;;;17.15;49.61;97543.82;1653369;86;21076;-63
2021/06/01 07:12:52;;;;;;;0.55;0.47;;;;;;;17.27;46.79;97548.83;1653329;86;21052;-63
2021/06/01 07:15:27;;;;;;;0.50;0.40;;;;;;;17.41;49.37;97547.37;1653468;86;21222;-66
2021/06/01 07:17:58;;;;;;;0.45;0.30;;;;;;;17.20;47.21;97544.84;1653320;86;21096;-63
2021/06/01 07:20:30;;;;;;;2.30;0.80;;;;;;;17.04;47.29;97545.97;1653253;86;21091;-64
2021/06/01 07:22:56;;;;;;;0.90;0.70;;;;;;;17.10;46.97;97541.77;1653176;86;21635;-64
2021/06/01 07:25:23;;;;;;;0.55;0.53;;;;;;;17.46;47.47;97540.23;1653513;86;21562;-65
2021/06/01 07:27:50;;;;;;;0.30;0.30;;;;;;;17.55;46.40;97546.91;1653524;86;21659;-65
2021/06/01 07:30:18;;;;;;;0.47;0.40;;;;;;;18.02;50.31;97539.00;1653651;86;21521;-66
2021/06/01 07:32:46;;;;;;;0.60;0.40;;;;;;;17.97;44.80;97534.05;1653338;86;21064;-67
2021/06/01 07:35:16;;;;;;;1.55;1.00;;;;;;;18.38;47.08;97539.95;1653396;86;21068;-64
2021/06/01 07:37:43;;;;;;;1.02;0.62;;;;;;;18.57;48.30;97540.17;1653526;86;21048;-67
2021/06/01 07:40:11;;;;;;;1.10;0.70;;;;;;;18.70;45.76;97540.98;1648545;85;21148;-67
2021/06/01 07:42:38;;;;;;;0.60;0.57;;;;;;;18.74;44.97;97536.12;1648213;86;21076;-67
2021/06/01 07:45:06;;;;;;;2.00;0.50;;;;;;;18.55;42.69;97541.70;1647990;86;21069;-63
2021/06/01 07:47:34;;;;;;;1.17;0.60;;;;;;;18.21;42.79;97533.45;1648171;86;21568;-67
2021/06/01 07:50:01;;;;;;;0.37;0.37;;;;;;;18.09;42.79;97540.34;1648094;86;21513;-66
2021/06/01 07:52:28;;;;;;;1.65;0.40;;;;;;;18.31;42.36;97539.14;1648111;86;21225;-64
2021/06/01 07:54:56;;;;;;;0.45;0.45;;;;;;;18.70;44.06;97544.93;1648203;86;21064;-66
2021/06/01 07:57:23;;;;;;;1.40;0.60;;;;;;;18.43;41.35;97541.97;1648233;86;21573;-64
2021/06/01 07:59:50;;;;;;;4.12;0.60;;;;;;;18.38;41.82;97537.82;1648367;86;21069;-64
2021/06/01 08:02:18;;;;;;;0.82;0.50;;;;;;;18.41;42.44;97538.22;1648110;86;21059;-63
2021/06/01 08:04:44;;;;;;;0.50;0.50;;;;;;;18.31;42.71;97546.22;1648110;86;21105;-63
2021/06/01 08:07:13;;;;;;;2.58;0.53;;;;;;;18.74;42.58;97540.06;1648139;86;21040;-63
2021/06/01 08:09:40;;;;;;;1.27;0.50;;;;;;;19.09;41.20;97537.98;1648077;86;21576;-67
2021/06/01 08:12:09;;;;;;;1.90;0.50;;;;;;;19.20;42.37;97542.59;1648031;86;21155;-63
2021/06/01 08:14:36;;;;;;;0.90;0.50;;;;;;;19.28;41.50;97546.33;1648015;86;21078;-63
2021/06/01 08:17:04;;;;;;;0.50;0.42;;;;;;;19.23;41.42;97543.49;1647937;86;21219;-67
2021/06/01 08:19:35;;;;;;;0.47;0.47;;;;;;;18.60;41.25;97541.10;1648156;86;21084;-64
2021/06/01 08:22:09;;;;;;;0.80;0.70;;;;;;;18.97;41.98;97539.13;1648280;86;21036;-65
2021/06/01 08:24:30;;;;;;;1.70;0.78;;;;;;;19.06;41.20;97537.89;1647870;86;21081;-65
2021/06/01 08:26:57;;;;;;;2.35;0.60;;;;;;;19.17;41.31;97549.60;1648118;86;21084;-65
2021/06/01 08:29:24;;;;;;;0.47;0.40;;;;;;;19.22;40.77;97545.31;1648087;86;21593;-66
2021/06/01 08:31:52;;;;;;;1.05;0.57;;;;;;;19.10;41.44;97536.97;1647931;86;21072;-65
2021/06/01 08:34:19;;;;;;;0.95;0.40;;;;;;;19.53;40.69;97553.06;1648198;86;21049;-66
2021/06/01 08:36:49;;;;;;;0.53;0.45;;;;;;;19.60;40.35;97541.98;1648008;86;21068;-63
2021/06/01 08:39:23;;;;;;;0.40;0.40;;;;;;;19.82;39.80;97542.78;1645890;86;21611;-63
2021/06/01 08:41:45;;;;;;;0.57;0.50;;;;;;;20.21;40.10;97544.36;1643321;87;21072;-65
2021/06/01 08:44:14;;;;;;;1.00;0.60;;;;;;;20.10;39.41;97545.05;1643346;86;21064;-64
2021/06/01 08:46:41;;;;;;;0.50;0.50;;;;;;;20.01;40.38;97548.95;1643126;86;21101;-67
2021/06/01 08:49:14;;;;;;;0.55;0.42;;;;;;;19.80;40.93;97548.75;1643440;87;21057;-70
2021/06/01 08:51:42;;;;;;;0.37;0.35;;;;;;;20.01;40.13;97555.53;1643260;86;21064;-64
2021/06/01 08:54:09;;;;;;;0.70;0.47;;;;;;;20.10;40.77;97554.78;1643339;86;21105;-64
2021/06/01 08:56:36;;;;;;;0.78;0.70;;;;;;;20.11;39.96;97555.90;1643208;87;21196;-66
2021/06/01 08:59:04;;;;;;;0.75;0.50;;;;;;;20.43;40.93;97555.37;1643385;86;21540;-66
2021/06/01 09:01:31;;;;;;;0.95;0.50;;;;;;;20.52;40.78;97537.45;1633967;87;21111;-66
2021/06/01 09:03:59;;;;;;;0.50;0.50;;;;;;;20.59;40.77;97554.03;1633974;86;21099;-63
2021/06/01 09:06:32;;;;;;;2.45;1.32;;;;;;;20.54;39.14;97554.70;1633993;86;21091;-66
2021/06/01 09:23:05;;;;;;;1.03;0.73;;;;;;;20.37;40.11;97565.48;1634054;86;21064;-64
2021/06/01 09:25:48;;;;;;;2.55;1.00;;;;;;;20.51;38.01;97566.17;1633987;86;21551;-64
2021/06/01 09:28:07;;;;;;;1.35;0.60;;;;;;;20.43;39.53;97565.14;1631845;87;21075;-64
2021/06/01 09:30:50;;;;;;;2.22;0.65;;;;;;;20.10;39.56;97567.45;1634371;86;21150;-67
2021/06/01 09:33:22;;;;;;;3.50;0.78;;;;;;;20.40;40.81;97570.31;1634755;86;21179;-63
2021/06/01 09:36:05;;;;;;;1.00;0.90;;;;;;;20.32;41.19;97572.70;1635041;87;21110;-67
2021/06/01 09:38:40;;;;;;;0.62;0.55;;;;;;;20.12;39.91;97581.72;1634552;86;21095;-64
2021/06/01 09:41:14;;;;;;;1.32;0.85;;;;;;;19.31;40.39;97573.05;1636899;86;21103;-66
2021/06/01 09:44:05;;;;;;;0.60;0.60;;;;;;;18.90;41.85;97573.84;1636505;86;21626;-64
2021/06/01 09:46:40;;;;;;;2.45;1.10;;;;;;;18.37;42.72;97577.75;1636552;86;21610;-64
2021/06/01 09:49:18;;;;;;;1.12;0.70;;;;;;;18.16;43.36;97577.13;1636248;86;21139;-64
2021/06/01 09:51:57;;;;;;;0.90;0.60;;;;;;;18.35;43.29;97577.66;1636715;87;21107;-69
2021/06/01 09:54:41;;;;;;;1.05;0.95;;;;;;;18.46;43.24;97581.81;1636564;86;21110;-67
2021/06/01 09:57:27;;;;;;;0.50;0.50;;;;;;;18.55;42.36;97574.58;1636488;87;21115;-65
2021/06/01 10:00:16;;;;;;;0.42;0.42;;;;;;;18.84;43.04;97572.02;1636363;87;21072;-67
2021/06/01 10:02:51;;;;;;;1.50;1.17;;;;;;;19.16;41.63;97567.72;1636531;86;21091;-63
2021/06/01 10:05:29;;;;;;;0.47;0.40;;;;;;;19.75;42.12;97563.09;1636087;87;21091;-64
2021/06/01 10:07:58;;;;;;;0.40;0.40;;;;;;;20.42;37.22;97559.56;1636442;86;21520;-63
2021/06/01 10:10:30;;;;;;;1.77;0.80;;;;;;;21.07;39.42;97560.30;1636428;86;21059;-67
2021/06/01 10:13:03;;;;;;;0.65;0.65;;;;;;;21.10;36.36;97557.22;1636251;87;21106;-67
2021/06/01 10:15:33;;;;;;;0.60;0.60;;;;;;;21.25;37.49;97560.84;1636336;86;21103;-66
2021/06/01 10:18:03;;;;;;;0.70;0.50;;;;;;;21.55;38.84;97553.00;1636667;86;21210;-66
2021/06/01 10:20:33;;;;;;;0.75;0.60;;;;;;;21.51;38.19;97557.92;1635769;86;21127;-67
2021/06/01 10:23:02;;;;;;;1.42;0.53;;;;;;;21.46;36.15;97554.31;1636432;86;21623;-64
2021/06/01 10:25:30;;;;;;;0.50;0.40;;;;;;;21.12;36.73;97557.85;1636591;86;21108;-67
2021/06/01 10:28:03;;;;;;;0.57;0.53;;;;;;;20.89;37.35;97561.61;1636451;86;21643;-67
2021/06/01 10:30:32;;;;;;;0.60;0.50;;;;;;;20.81;39.65;97563.20;1636343;86;21140;-67
2021/06/01 10:33:04;;;;;;;1.00;0.60;;;;;;;20.90;39.27;97564.52;1636559;86;21123;-64
2021/06/01 10:35:39;;;;;;;0.50;0.50;;;;;;;21.00;40.08;97564.84;1636613;86;21086;-64
2021/06/01 10:52:27;;;;;;;1.15;0.62;;;;;;;21.32;40.14;97568.20;1636494;86;21071;-62
2021/06/01 10:54:57;;;;;;;0.40;0.40;;;;;;;21.46;39.07;97564.88;1636590;86;21147;-70
2021/06/01 10:57:45;;;;;;;0.68;0.60;;;;;;;21.47;37.14;97566.51;1636456;86;21067;-64
2021/06/01 11:03:18;;;;;;;0.55;0.50;;;;;;;20.33;37.83;97558.51;1636636;86;21108;-64
2021/06/01 11:06:04;;;;;;;0.72;0.60;;;;;;;20.71;38.59;97558.40;1636480;86;21104;-66
2021/06/01 11:08:42;;;;;;;2.33;0.72;;;;;;;20.52;38.54;97562.52;1636661;87;21162;-64
2021/06/01 11:11:31;;;;;;;0.62;0.57;;;;;;;20.50;38.14;97564.58;1636588;86;21555;-67
2021/06/01 11:14:01;;;;;;;0.50;0.40;;;;;;;20.31;39.09;97568.98;1634522;87;21100;-67
2021/06/01 11:16:53;;;;;;;0.90;0.70;;;;;;;20.40;39.39;97564.23;1636564;86;21135;-65
2021/06/01 11:19:23;;;;;;;0.70;0.68;;;;;;;20.14;38.57;97566.02;1636811;86;21120;-64
2021/06/01 11:22:04;;;;;;;0.60;0.60;;;;;;;20.12;39.41;97557.49;1636281;86;21091;-64
2021/06/01 11:35:38;;;;;;;2.50;0.42;;;;;;;20.36;39.21;97555.44;1636804;86;21171;-67
2021/06/01 11:38:16;;;;;;;1.02;0.55;;;;;;;20.56;37.97;97554.47;1636266;86;21091;-64
2021/06/01 11:40:58;;;;;;;0.95;0.68;;;;;;;21.14;37.35;97551.01;1625456;87;21098;-67
2021/06/01 11:43:23;;;;;;;2.33;0.60;;;;;;;21.87;37.47;97548.30;1624259;87;21609;-65
2021/06/01 11:46:08;;;;;;;1.60;0.78;;;;;;;21.81;34.31;97551.34;1669095;85;21043;-64
2021/06/01 11:51:17;;;;;;;0.50;0.50;;;;;;;23.83;36.89;97551.28;1668537;85;21079;-64
2021/06/01 11:54:04;;;;;;;0.72;0.47;;;;;;;23.82;34.11;97550.47;1668827;85;21043;-64
2021/06/01 12:02:22;;;;;;;1.50;0.40;;;;;;;23.29;36.36;97547.26;1669207;85;21646;-64
2021/06/01 12:18:46;;;;;;;1.05;0.70;;;;;;;21.84;35.78;97578.63;1668919;85;21162;-64
2021/06/01 12:21:20;;;;;;;1.05;0.68;;;;;;;21.05;35.33;97589.27;1668817;84;21063;-64
2021/06/01 12:23:56;;;;;;;1.15;1.00;;;;;;;20.06;39.98;97584.71;1667188;85;21637;-67
2021/06/01 12:32:05;;;;;;;2.55;0.53;;;;;;;18.02;48.35;97614.38;1669019;85;21143;-67
2021/06/01 12:34:56;;;;;;;2.58;0.80;;;;;;;17.36;51.15;97615.88;1624729;87;21177;-67
2021/06/01 12:43:06;;;;;;;0.65;0.53;;;;;;;16.71;54.33;97626.23;1650653;86;21622;-65
2021/06/01 13:12:52;;;;;;;0.72;0.47;;;;;;;15.51;67.49;97641.33;1650606;85;21117;-65
2021/06/01 13:20:49;;;;;;;1.15;0.53;;;;;;;15.68;66.80;97634.40;1650665;85;21118;-62
2021/06/01 13:46:22;;;;;;;1.17;0.60;;;;;;;16.79;59.01;97622.17;1628817;85;21272;-64
2021/06/01 13:51:35;;;;;;;0.95;0.50;;;;;;;17.30;57.24;97630.61;1660788;84;21623;-69
2021/06/01 13:56:34;;;;;;;0.70;0.47;;;;;;;18.53;53.73;97620.47;1647773;83;21080;-66
2021/06/01 13:59:08;;;;;;;0.60;0.42;;;;;;;19.00;51.66;97620.28;1661389;85;21638;-67
2021/06/01 14:10:23;;;;;;;1.15;0.55;;;;;;;20.18;49.52;97625.71;1660653;85;21052;-64
2021/06/01 14:15:31;;;;;;;0.55;0.42;;;;;;;20.28;47.27;97622.94;1678315;84;20290;-67
2021/06/01 14:21:16;;;;;;;0.57;0.50;;;;;;;20.42;45.00;97624.18;1659958;86;21159;-67
2021/06/01 14:29:46;;;;;;;1.72;1.30;;;;;;;19.20;45.72;97628.15;1659725;86;21162;-67
2021/06/01 15:03:53;;;;;;;1.70;0.88;;;;;;;21.72;38.70;97612.12;1659960;86;21111;-67